Time;durP1;ratioP1;P1;durP2;ratioP2;P2;SDS_P1;SDS_P2;PMS_P1;PMS_P2;Temp;Humidity;BMP_temperature;BMP_pressure;BME280_temperature;BME280_humidity;BME280_pressure;Samples;Min_cycle;Max_cycle;Signal;HPM_P1;HPM_P2
2023/07/27 00:01:04;;;;;;;2.67;1.50;;;17.30;99.90;;;;;;5056592;28;20029;-85
2023/07/27 00:03:31;;;;;;;5.68;1.40;;;17.40;99.90;;;;;;5056246;28;20036;-85
2023/07/27 00:05:56;;;;;;;1.42;1.10;;;17.30;99.90;;;;;;5038433;28;20049;-85
2023/07/27 00:08:22;;;;;;;2.40;1.60;;;17.30;99.90;;;;;;5038288;28;20036;-84
2023/07/27 00:10:47;;;;;;;3.53;1.45;;;17.30;99.90;;;;;;5039121;28;20044;-85
2023/07/27 00:13:13;;;;;;;1.90;1.10;;;17.30;99.90;;;;;;5038773;28;20404;-84
2023/07/27 00:15:38;;;;;;;3.92;1.20;;;17.30;99.90;;;;;;5038132;28;20078;-85
2023/07/27 00:18:04;;;;;;;3.10;1.60;;;17.20;99.90;;;;;;5056316;28;20033;-84
2023/07/27 00:20:30;;;;;;;2.58;1.33;;;17.10;99.90;;;;;;5038232;28;20087;-84
2023/07/27 00:22:55;;;;;;;2.00;1.25;;;17.10;99.90;;;;;;5038633;28;20025;-84
2023/07/27 00:25:21;;;;;;;3.97;1.40;;;17.10;99.90;;;;;;5038300;28;20025;-82
2023/07/27 00:27:46;;;;;;;2.92;1.40;;;17.00;99.90;;;;;;5056283;28;20071;-85
2023/07/27 00:30:13;;;;;;;2.75;1.20;;;17.10;99.90;;;;;;5038829;28;20410;-85
2023/07/27 00:32:38;;;;;;;2.15;1.20;;;17.00;99.90;;;;;;5055656;28;20101;-84
2023/07/27 00:35:05;;;;;;;1.73;1.25;;;17.00;99.90;;;;;;5038380;28;20057;-85
2023/07/27 00:37:30;;;;;;;2.80;1.50;;;16.90;99.90;;;;;;5038347;28;20039;-85
2023/07/27 00:39:56;;;;;;;2.10;1.38;;;16.80;99.90;;;;;;5038625;28;20111;-85
2023/07/27 00:42:21;;;;;;;2.88;1.58;;;16.70;99.90;;;;;;5056168;28;20096;-82
2023/07/27 00:44:47;;;;;;;3.03;1.40;;;16.60;99.90;;;;;;5038247;28;20025;-85
2023/07/27 00:47:13;;;;;;;2.78;1.48;;;16.60;99.90;;;;;;5038641;28;20035;-85
2023/07/27 00:49:38;;;;;;;4.53;1.40;;;16.60;99.90;;;;;;5038112;28;20104;-85
2023/07/27 00:52:07;;;;;;;3.22;1.50;;;16.60;99.90;;;;;;5038801;28;20493;-85
2023/07/27 00:54:34;;;;;;;2.75;1.60;;;16.50;99.90;;;;;;5055168;28;20025;-85
2023/07/27 00:57:00;;;;;;;1.67;1.30;;;16.50;99.90;;;;;;5054956;28;20021;-86
2023/07/27 00:59:26;;;;;;;3.03;1.60;;;16.50;99.90;;;;;;5037931;28;20460;-85
2023/07/27 01:01:51;;;;;;;2.63;1.60;;;16.50;99.90;;;;;;5038278;28;20060;-84
2023/07/27 01:04:17;;;;;;;4.18;1.70;;;16.60;99.90;;;;;;5038101;28;20102;-85
2023/07/27 01:06:42;;;;;;;4.72;1.55;;;16.60;99.90;;;;;;5037899;28;20454;-85
2023/07/27 01:09:08;;;;;;;5.97;2.00;;;16.40;99.90;;;;;;5037835;28;20124;-86
2023/07/27 01:11:43;;;;;;;4.40;1.80;;;16.40;99.90;;;;;;5037926;28;20040;-88
2023/07/27 01:14:23;;;;;;;5.25;1.63;;;16.50;99.90;;;;;;5038196;28;20021;-87
2023/07/27 01:17:09;;;;;;;6.13;1.65;;;16.50;99.90;;;;;;5037545;28;20025;-87
2023/07/27 01:20:11;;;;;;;3.70;1.73;;;16.50;99.90;;;;;;5037281;28;20508;-87
2023/07/27 01:22:46;;;;;;;4.28;1.70;;;16.40;99.90;;;;;;5024114;28;20556;-87
2023/07/27 01:25:33;;;;;;;4.20;1.75;;;16.30;99.90;;;;;;5038090;28;20375;-87
2023/07/27 01:28:26;;;;;;;2.60;1.50;;;16.30;99.90;;;;;;5055479;28;20083;-87
2023/07/27 01:31:09;;;;;;;2.45;1.63;;;16.30;99.90;;;;;;5037756;28;20025;-87
2023/07/27 01:33:40;;;;;;;3.05;1.63;;;16.30;99.90;;;;;;5037141;28;20458;-86
2023/07/27 01:36:13;;;;;;;2.22;1.60;;;16.30;99.90;;;;;;5037476;28;20037;-87
2023/07/27 01:38:41;;;;;;;2.08;1.40;;;16.30;99.90;;;;;;5037258;28;20115;-86
2023/07/27 01:41:09;;;;;;;3.08;1.45;;;16.20;99.90;;;;;;5037559;28;20029;-86
2023/07/27 01:43:36;;;;;;;5.03;1.95;;;16.30;99.90;;;;;;5036859;28;20032;-87
2023/07/27 01:46:03;;;;;;;3.83;1.73;;;16.30;99.90;;;;;;5037515;28;20043;-86
2023/07/27 01:48:30;;;;;;;4.03;1.55;;;16.30;99.90;;;;;;5036930;28;20025;-85
2023/07/27 01:50:57;;;;;;;2.60;1.80;;;16.20;99.90;;;;;;5037323;28;20465;-87
2023/07/27 01:53:25;;;;;;;7.65;1.75;;;16.20;99.90;;;;;;5037715;28;20041;-87
2023/07/27 01:55:52;;;;;;;2.88;1.67;;;16.30;99.90;;;;;;5054620;28;20029;-87
2023/07/27 01:58:20;;;;;;;2.28;1.70;;;16.20;99.90;;;;;;5036806;28;20055;-88
2023/07/27 02:00:46;;;;;;;2.00;1.50;;;16.30;99.90;;;;;;5036689;28;20423;-90
2023/07/27 02:03:12;;;;;;;1.65;1.42;;;16.30;99.90;;;;;;5036573;28;20505;-90
2023/07/27 02:05:37;;;;;;;5.03;1.80;;;16.30;99.90;;;;;;5046693;28;20080;-89
2023/07/27 02:08:03;;;;;;;3.97;1.80;;;16.30;99.90;;;;;;5017094;28;20064;-88
2023/07/27 02:10:30;;;;;;;2.47;1.70;;;16.20;99.90;;;;;;5034388;28;20021;-86
2023/07/27 02:13:11;;;;;;;2.83;1.50;;;16.20;99.90;;;;;;5034850;28;20029;-88
2023/07/27 02:15:44;;;;;;;3.75;1.80;;;16.20;99.90;;;;;;5016936;28;20459;-88
2023/07/27 02:18:16;;;;;;;3.33;1.63;;;16.20;99.90;;;;;;5034494;28;20036;-88
2023/07/27 02:20:42;;;;;;;;;;;16.20;99.90;;;;;;5017248;28;20118;-87
2023/07/27 02:23:10;;;;;;;3.40;1.63;;;16.20;99.90;;;;;;5017023;28;19912;-87
2023/07/27 02:25:35;;;;;;;3.05;1.73;;;16.20;99.90;;;;;;5016503;28;20041;-87
2023/07/27 02:28:01;;;;;;;2.25;1.42;;;16.20;99.90;;;;;;5034345;28;20034;-87
2023/07/27 02:30:27;;;;;;;6.93;2.13;;;16.20;99.90;;;;;;5016906;28;20032;-87
2023/07/27 02:32:52;;;;;;;2.03;1.42;;;16.20;99.90;;;;;;5034029;28;20075;-87
2023/07/27 02:35:19;;;;;;;4.35;1.83;;;16.30;99.90;;;;;;5034595;28;20093;-86
2023/07/27 02:37:44;;;;;;;3.15;1.45;;;16.30;99.90;;;;;;5034130;28;20033;-86
2023/07/27 02:40:10;;;;;;;3.13;1.35;;;16.30;99.90;;;;;;5016757;28;20373;-86
2023/07/27 02:42:36;;;;;;;2.53;1.67;;;16.20;99.90;;;;;;5016398;28;20048;-85
2023/07/27 02:45:01;;;;;;;5.80;2.00;;;16.20;99.90;;;;;;5016559;28;20478;-86
2023/07/27 02:47:27;;;;;;;4.00;1.67;;;16.20;99.90;;;;;;5034302;28;20156;-86
2023/07/27 02:49:52;;;;;;;4.32;1.33;;;16.20;99.90;;;;;;5033998;28;20104;-85
2023/07/27 02:52:18;;;;;;;4.07;1.77;;;16.10;99.90;;;;;;5016972;28;20025;-86
2023/07/27 02:54:43;;;;;;;2.50;1.50;;;16.10;99.90;;;;;;5033665;28;20036;-86
2023/07/27 02:57:09;;;;;;;2.70;1.30;;;16.10;99.90;;;;;;5034225;28;20021;-86
2023/07/27 02:59:34;;;;;;;3.78;1.42;;;16.10;99.90;;;;;;5033500;28;20056;-88
2023/07/27 03:02:00;;;;;;;1.80;1.33;;;16.10;99.90;;;;;;5016853;28;20025;-86
2023/07/27 03:04:26;;;;;;;2.80;1.55;;;16.10;99.90;;;;;;5016544;28;20060;-86
2023/07/27 03:06:51;;;;;;;3.78;1.60;;;16.10;99.90;;;;;;5033155;28;20053;-86
2023/07/27 03:09:17;;;;;;;2.58;1.75;;;16.20;99.90;;;;;;5034140;28;20025;-88
2023/07/27 03:11:42;;;;;;;2.22;1.42;;;16.20;99.90;;;;;;5033689;28;20025;-87
2023/07/27 03:14:08;;;;;;;2.45;1.52;;;16.20;99.90;;;;;;5033756;28;20025;-87
2023/07/27 03:16:34;;;;;;;4.20;1.48;;;16.20;99.90;;;;;;5033332;28;20463;-87
2023/07/27 03:19:00;;;;;;;3.17;1.15;;;16.20;99.90;;;;;;5033844;28;20474;-87
2023/07/27 03:21:25;;;;;;;3.58;1.60;;;16.20;99.90;;;;;;5036474;28;20136;-88
2023/07/27 03:23:51;;;;;;;2.58;1.35;;;16.20;99.90;;;;;;5019963;28;20025;-88
2023/07/27 03:26:16;;;;;;;3.50;1.15;;;16.20;99.90;;;;;;5037559;28;20064;-88
2023/07/27 03:28:42;;;;;;;3.42;1.55;;;16.20;99.90;;;;;;5019441;28;20453;-88
2023/07/27 03:31:14;;;;;;;2.85;1.40;;;16.20;99.90;;;;;;5020176;28;20083;-89
2023/07/27 03:33:39;;;;;;;3.83;1.60;;;16.20;99.90;;;;;;5019762;28;20033;-87
2023/07/27 03:36:05;;;;;;;3.50;1.42;;;16.30;99.90;;;;;;5037556;28;20041;-88
2023/07/27 03:38:32;;;;;;;4.25;1.55;;;16.30;99.90;;;;;;5037588;28;20026;-86
2023/07/27 03:40:58;;;;;;;3.38;1.33;;;16.30;99.90;;;;;;5019459;28;20034;-88
2023/07/27 03:43:23;;;;;;;1.85;1.50;;;16.30;99.90;;;;;;5019852;28;20359;-88
2023/07/27 03:45:55;;;;;;;2.50;1.20;;;16.40;99.90;;;;;;5019256;28;20029;-87
2023/07/27 03:48:20;;;;;;;3.20;1.40;;;16.40;99.90;;;;;;5019370;28;20029;-87
2023/07/27 03:50:46;;;;;;;2.58;1.58;;;16.40;99.90;;;;;;5019171;28;20041;-87
2023/07/27 03:53:12;;;;;;;7.50;1.70;;;16.30;99.90;;;;;;5019371;28;20026;-87
2023/07/27 03:55:37;;;;;;;3.55;1.67;;;16.30;99.90;;;;;;5036906;28;20559;-87
2023/07/27 03:58:03;;;;;;;6.32;2.72;;;16.40;99.90;;;;;;5020180;28;20053;-87
2023/07/27 04:00:29;;;;;;;5.90;3.63;;;16.30;99.90;;;;;;5019783;28;20021;-87
2023/07/27 04:02:54;;;;;;;2.22;1.60;;;16.40;99.90;;;;;;5019260;28;20176;-87
2023/07/27 04:05:20;;;;;;;5.72;1.88;;;16.40;99.90;;;;;;5020825;28;20050;-87
2023/07/27 04:07:49;;;;;;;3.63;1.92;;;16.40;99.90;;;;;;5035678;28;20462;-86
2023/07/27 04:10:15;;;;;;;1.73;1.63;;;16.40;99.90;;;;;;5036008;28;20467;-87
2023/07/27 04:12:40;;;;;;;4.80;1.52;;;16.50;99.90;;;;;;5036646;28;20056;-87
2023/07/27 04:15:07;;;;;;;3.38;1.65;;;16.50;99.90;;;;;;5037279;28;20101;-87
2023/07/27 04:17:32;;;;;;;6.43;1.73;;;16.50;99.90;;;;;;5036278;28;20086;-88
2023/07/27 04:19:58;;;;;;;2.40;1.17;;;16.40;99.90;;;;;;5036369;28;20486;-87
2023/07/27 04:22:23;;;;;;;4.43;1.60;;;16.40;99.90;;;;;;5036135;28;20025;-87
2023/07/27 04:24:49;;;;;;;3.72;1.80;;;16.40;99.90;;;;;;5035192;28;20028;-87
2023/07/27 04:27:15;;;;;;;2.03;1.55;;;16.50;99.90;;;;;;5035913;28;20052;-87
2023/07/27 04:29:41;;;;;;;1.95;1.45;;;16.60;99.90;;;;;;5035348;28;20382;-88
2023/07/27 04:32:07;;;;;;;3.40;1.65;;;16.60;99.90;;;;;;5036438;28;20554;-88
2023/07/27 04:34:33;;;;;;;3.97;1.75;;;16.60;99.90;;;;;;5035628;28;20034;-88
2023/07/27 04:36:58;;;;;;;4.10;1.80;;;16.60;99.90;;;;;;5036102;28;20160;-87
2023/07/27 04:39:24;;;;;;;3.03;1.83;;;16.50;99.90;;;;;;5036661;28;20183;-87
2023/07/27 04:41:49;;;;;;;1.63;1.45;;;16.60;99.90;;;;;;5035949;28;20038;-87
2023/07/27 04:44:15;;;;;;;2.63;1.80;;;16.60;99.90;;;;;;5035487;28;20060;-87
2023/07/27 04:46:40;;;;;;;2.50;1.85;;;16.60;99.90;;;;;;5034723;28;20033;-87
2023/07/27 04:49:09;;;;;;;2.72;1.52;;;16.60;99.90;;;;;;5035363;28;20026;-87
2023/07/27 04:51:34;;;;;;;4.30;1.80;;;16.60;99.90;;;;;;5035204;28;20030;-87
2023/07/27 04:54:01;;;;;;;3.50;1.60;;;16.60;99.90;;;;;;5034946;28;20029;-87
2023/07/27 04:56:26;;;;;;;2.00;1.38;;;16.60;99.90;;;;;;5035343;28;20029;-87
2023/07/27 04:58:52;;;;;;;3.03;1.67;;;16.70;99.90;;;;;;5035280;28;20025;-87
2023/07/27 05:01:17;;;;;;;3.25;1.60;;;16.70;99.90;;;;;;5035263;28;20140;-87
2023/07/27 05:03:43;;;;;;;1.85;1.50;;;16.80;99.90;;;;;;5035994;28;20026;-88
2023/07/27 05:06:09;;;;;;;4.45;1.17;;;16.80;99.90;;;;;;5034464;28;20144;-86
2023/07/27 05:08:34;;;;;;;4.35;1.40;;;16.90;99.90;;;;;;5035842;28;20033;-87
2023/07/27 05:11:06;;;;;;;2.47;1.20;;;16.90;99.90;;;;;;5034183;28;20033;-89
2023/07/27 05:13:32;;;;;;;3.63;1.45;;;16.90;99.90;;;;;;5034939;28;20087;-89
2023/07/27 05:15:58;;;;;;;5.13;1.38;;;17.00;99.90;;;;;;5034557;28;20029;-89
2023/07/27 05:18:24;;;;;;;4.10;1.95;;;17.00;99.90;;;;;;5036039;28;20124;-89
2023/07/27 05:20:50;;;;;;;1.90;1.63;;;17.00;99.90;;;;;;5034095;28;20029;-85
2023/07/27 05:23:15;;;;;;;2.65;1.33;;;17.00;99.90;;;;;;5035142;28;20466;-88
2023/07/27 05:25:41;;;;;;;5.55;1.23;;;17.00;99.90;;;;;;5033973;28;20022;-85
2023/07/27 05:28:07;;;;;;;1.77;1.48;;;17.00;99.90;;;;;;5034541;28;20029;-86
2023/07/27 05:30:32;;;;;;;2.15;1.55;;;17.10;99.90;;;;;;5035238;28;20021;-87
2023/07/27 05:32:58;;;;;;;2.53;1.30;;;17.00;99.90;;;;;;5034763;28;20025;-87
2023/07/27 05:35:24;;;;;;;2.10;1.50;;;17.10;99.90;;;;;;5034286;28;20036;-87
2023/07/27 05:37:50;;;;;;;6.43;1.65;;;17.10;99.90;;;;;;5033980;28;20057;-86
2023/07/27 05:40:15;;;;;;;2.58;1.60;;;17.10;99.90;;;;;;5034191;28;20081;-87
2023/07/27 05:42:42;;;;;;;2.97;1.55;;;17.20;99.90;;;;;;5034088;28;20433;-86
2023/07/27 05:45:09;;;;;;;1.52;1.13;;;17.30;99.90;;;;;;5034922;28;20022;-87
2023/07/27 05:47:34;;;;;;;4.85;1.60;;;17.30;99.90;;;;;;5034034;28;20095;-87
2023/07/27 05:50:00;;;;;;;2.15;1.17;;;17.40;99.90;;;;;;5033470;28;20021;-85
2023/07/27 05:52:26;;;;;;;2.72;1.80;;;17.40;99.90;;;;;;5035042;28;20069;-86
2023/07/27 05:54:51;;;;;;;2.78;1.50;;;17.50;99.90;;;;;;5033630;28;20036;-86
2023/07/27 05:57:17;;;;;;;3.97;1.35;;;17.40;99.90;;;;;;5033828;28;20387;-86
2023/07/27 05:59:43;;;;;;;2.70;1.75;;;17.50;99.90;;;;;;5033625;28;20053;-86
2023/07/27 06:02:08;;;;;;;2.40;1.35;;;17.50;99.90;;;;;;5034105;28;20026;-87
2023/07/27 06:04:34;;;;;;;3.22;1.60;;;17.50;99.90;;;;;;5033305;28;20037;-88
2023/07/27 06:07:00;;;;;;;4.50;1.55;;;17.60;99.90;;;;;;5032857;28;20510;-87
2023/07/27 06:09:26;;;;;;;5.22;1.67;;;17.60;99.90;;;;;;5033785;28;20049;-88
2023/07/27 06:11:52;;;;;;;1.67;1.55;;;17.70;99.90;;;;;;5033112;28;20032;-87
2023/07/27 06:14:18;;;;;;;1.65;1.38;;;17.70;99.90;;;;;;5034487;28;20030;-87
2023/07/27 06:16:44;;;;;;;4.82;1.55;;;17.70;99.90;;;;;;5033213;28;20052;-86
2023/07/27 06:19:09;;;;;;;2.15;1.40;;;17.70;99.90;;;;;;5033892;28;20467;-86
2023/07/27 06:21:35;;;;;;;2.83;1.50;;;17.70;99.90;;;;;;5033797;28;20034;-87
2023/07/27 06:24:01;;;;;;;3.50;1.40;;;17.80;99.90;;;;;;5033195;28;20492;-89
2023/07/27 06:26:27;;;;;;;2.35;1.55;;;17.70;99.90;;;;;;5034088;28;20111;-87
2023/07/27 06:28:52;;;;;;;2.60;1.60;;;17.60;99.90;;;;;;5032893;28;20175;-88
2023/07/27 06:31:18;;;;;;;2.78;1.40;;;17.60;99.90;;;;;;5033997;28;20080;-87
2023/07/27 06:33:43;;;;;;;5.00;1.58;;;17.60;99.90;;;;;;5033145;28;20029;-88
2023/07/27 06:36:12;;;;;;;1.73;1.35;;;17.50;99.90;;;;;;5032735;28;20065;-86
2023/07/27 06:38:41;;;;;;;2.83;1.55;;;17.50;99.90;;;;;;5032581;28;20029;-87
2023/07/27 06:41:06;;;;;;;2.00;1.50;;;17.50;99.90;;;;;;5034378;28;20387;-86
2023/07/27 06:43:32;;;;;;;3.35;1.55;;;17.60;99.90;;;;;;5033134;28;20029;-86
2023/07/27 06:45:58;;;;;;;2.70;1.58;;;17.70;99.90;;;;;;5032790;28;20030;-86
2023/07/27 06:48:23;;;;;;;3.58;1.50;;;17.60;99.90;;;;;;5034039;28;20470;-86
2023/07/27 06:50:49;;;;;;;2.80;1.63;;;17.70;99.90;;;;;;5034023;28;20367;-85
2023/07/27 06:53:15;;;;;;;2.88;1.58;;;17.60;99.90;;;;;;5034278;28;20060;-86
2023/07/27 06:55:41;;;;;;;3.33;1.80;;;17.70;99.90;;;;;;5034575;28;20032;-86
2023/07/27 06:58:06;;;;;;;3.08;1.88;;;17.70;99.90;;;;;;5036475;28;20071;-86
2023/07/27 07:00:32;;;;;;;4.97;2.10;;;17.70;99.90;;;;;;5038309;28;20025;-87
2023/07/27 07:02:58;;;;;;;4.80;1.55;;;17.70;99.90;;;;;;5036616;28;20375;-88
2023/07/27 07:05:25;;;;;;;2.88;1.67;;;17.80;99.90;;;;;;5036978;28;20060;-87
2023/07/27 07:07:51;;;;;;;3.70;1.85;;;17.80;99.90;;;;;;5037370;28;20026;-85
2023/07/27 07:10:18;;;;;;;5.18;1.80;;;17.90;99.90;;;;;;5037062;28;20107;-84
2023/07/27 07:12:44;;;;;;;6.50;1.58;;;17.90;99.90;;;;;;5036574;28;20029;-84
2023/07/27 07:15:10;;;;;;;5.97;1.92;;;17.90;99.90;;;;;;5037771;28;20030;-85
2023/07/27 07:17:36;;;;;;;2.58;1.40;;;17.90;99.90;;;;;;5036686;28;20033;-85
2023/07/27 07:20:05;;;;;;;6.75;1.90;;;17.90;99.90;;;;;;5036788;28;20025;-86
2023/07/27 07:22:32;;;;;;;3.83;1.50;;;17.90;99.90;;;;;;5037730;28;20385;-86
2023/07/27 07:24:57;;;;;;;3.58;1.60;;;18.00;99.90;;;;;;5038090;28;20030;-89
2023/07/27 07:27:23;;;;;;;5.13;1.90;;;18.10;99.90;;;;;;5036704;28;20078;-88
2023/07/27 07:29:48;;;;;;;4.53;1.50;;;18.10;99.90;;;;;;5036569;28;20413;-86
2023/07/27 07:32:15;;;;;;;3.08;1.67;;;18.20;99.90;;;;;;5037670;28;20033;-88
2023/07/27 07:34:40;;;;;;;3.47;1.30;;;18.20;99.90;;;;;;5036518;28;20044;-86
2023/07/27 07:37:06;;;;;;;4.07;1.63;;;18.20;99.90;;;;;;5028166;28;20034;-88
2023/07/27 07:39:31;;;;;;;3.22;1.35;;;18.20;99.90;;;;;;5032684;28;20025;-86
2023/07/27 07:41:58;;;;;;;3.38;1.63;;;18.20;99.90;;;;;;5036530;28;20103;-86
2023/07/27 07:44:24;;;;;;;2.67;1.35;;;18.20;99.90;;;;;;5033630;28;20051;-87
2023/07/27 07:46:50;;;;;;;4.13;1.50;;;18.20;99.90;;;;;;5030557;28;20394;-86
2023/07/27 07:49:15;;;;;;;3.58;1.50;;;18.20;99.90;;;;;;5022797;28;20116;-88
2023/07/27 07:51:41;;;;;;;2.58;1.50;;;18.30;99.90;;;;;;5021214;28;20029;-87
2023/07/27 07:54:09;;;;;;;6.57;1.95;;;18.30;99.90;;;;;;5035248;28;20071;-86
2023/07/27 07:56:35;;;;;;;2.35;1.60;;;18.30;99.90;;;;;;5036646;28;20061;-85
2023/07/27 07:59:01;;;;;;;2.92;1.85;;;18.30;99.90;;;;;;5020780;28;20029;-87
2023/07/27 08:01:27;;;;;;;1.95;1.25;;;18.40;99.90;;;;;;5019157;28;20083;-86
2023/07/27 08:03:53;;;;;;;6.70;1.50;;;18.40;99.90;;;;;;5030551;28;20030;-86
2023/07/27 08:06:18;;;;;;;2.38;1.58;;;18.40;99.90;;;;;;5049944;28;20548;-86
2023/07/27 08:08:45;;;;;;;3.58;1.65;;;18.40;99.90;;;;;;5035246;28;20029;-85
2023/07/27 08:11:10;;;;;;;2.40;1.55;;;18.40;99.90;;;;;;5020038;28;20056;-85
2023/07/27 08:13:36;;;;;;;2.65;1.50;;;18.40;99.90;;;;;;5035601;28;20443;-81
2023/07/27 08:16:04;;;;;;;3.08;1.42;;;18.40;99.90;;;;;;5034080;28;20087;-81
2023/07/27 08:18:32;;;;;;;1.85;1.40;;;18.40;99.90;;;;;;5028470;28;20092;-84
2023/07/27 08:21:05;;;;;;;4.00;1.73;;;18.50;99.90;;;;;;5035111;28;20470;-85
2023/07/27 08:23:31;;;;;;;4.72;1.50;;;18.50;99.90;;;;;;5030430;28;20026;-81
2023/07/27 08:25:58;;;;;;;1.88;1.38;;;18.50;99.90;;;;;;5027186;28;20065;-81
2023/07/27 08:28:23;;;;;;;6.18;1.55;;;18.50;99.90;;;;;;5025746;28;20029;-80
2023/07/27 08:30:50;;;;;;;3.42;1.63;;;18.50;99.90;;;;;;5034319;28;20481;-81
2023/07/27 08:33:16;;;;;;;3.95;2.03;;;18.50;99.90;;;;;;5035333;28;20451;-85
2023/07/27 08:35:42;;;;;;;5.45;1.70;;;18.50;99.90;;;;;;5035228;28;20033;-84
2023/07/27 08:38:08;;;;;;;2.83;1.70;;;18.50;99.90;;;;;;5034593;28;20018;-82
2023/07/27 08:40:34;;;;;;;2.03;1.38;;;18.50;99.90;;;;;;5023284;28;20040;-81
2023/07/27 08:43:07;;;;;;;3.28;1.40;;;18.50;99.90;;;;;;5034453;28;20028;-79
2023/07/27 08:45:34;;;;;;;1.85;1.30;;;18.50;99.90;;;;;;5024400;28;20033;-79
2023/07/27 08:48:00;;;;;;;2.88;1.60;;;18.50;99.90;;;;;;5030743;28;20029;-84
2023/07/27 08:50:26;;;;;;;5.28;1.52;;;18.50;99.90;;;;;;5033047;28;20124;-81
2023/07/27 08:52:52;;;;;;;5.97;1.67;;;18.50;99.90;;;;;;5029403;28;20076;-84
2023/07/27 08:55:18;;;;;;;2.13;1.30;;;18.50;99.90;;;;;;5032793;28;20033;-82
2023/07/27 08:57:43;;;;;;;4.10;1.60;;;18.50;99.90;;;;;;5028307;28;20064;-81
2023/07/27 09:00:10;;;;;;;2.05;1.45;;;18.50;99.90;;;;;;5033459;28;20033;-82
2023/07/27 09:02:36;;;;;;;4.95;2.20;;;18.50;99.90;;;;;;5034870;28;20040;-84
2023/07/27 09:05:01;;;;;;;6.60;2.25;;;18.50;99.90;;;;;;5036247;28;20033;-80
2023/07/27 09:07:27;;;;;;;3.33;1.30;;;18.50;99.90;;;;;;5054596;28;20039;-84
2023/07/27 09:09:53;;;;;;;3.90;1.45;;;18.50;99.90;;;;;;5033628;28;20497;-85
2023/07/27 09:12:22;;;;;;;2.50;1.17;;;18.50;99.90;;;;;;5051159;28;20126;-86
2023/07/27 09:14:48;;;;;;;3.25;1.30;;;18.50;99.90;;;;;;5034147;28;20057;-83
2023/07/27 09:17:14;;;;;;;3.55;1.30;;;18.60;99.90;;;;;;5035450;28;20036;-86
2023/07/27 09:19:43;;;;;;;4.22;1.40;;;18.60;99.90;;;;;;5036200;28;20021;-86
2023/07/27 09:22:11;;;;;;;3.65;1.60;;;18.60;99.90;;;;;;5033721;28;20109;-87
2023/07/27 09:24:36;;;;;;;3.05;1.30;;;18.70;99.90;;;;;;5035335;28;20112;-88
2023/07/27 09:27:09;;;;;;;4.85;1.42;;;18.70;99.90;;;;;;5037265;28;20076;-87
2023/07/27 09:29:35;;;;;;;2.47;1.33;;;18.70;99.90;;;;;;5054954;28;20021;-88
2023/07/27 09:32:01;;;;;;;4.53;1.55;;;18.80;99.90;;;;;;5033623;28;20024;-87
2023/07/27 09:34:29;;;;;;;4.80;1.65;;;18.90;99.90;;;;;;5046360;28;20032;-87
2023/07/27 09:37:07;;;;;;;4.70;1.52;;;18.90;99.90;;;;;;5033415;28;20025;-87
2023/07/27 09:39:35;;;;;;;2.22;1.40;;;18.90;99.90;;;;;;5027085;28;20024;-87
2023/07/27 09:42:01;;;;;;;2.58;1.27;;;18.90;99.90;;;;;;5054087;28;20454;-87
2023/07/27 09:44:26;;;;;;;2.78;1.70;;;19.00;99.90;;;;;;5036637;28;20036;-86
2023/07/27 09:46:52;;;;;;;2.63;1.20;;;19.00;99.90;;;;;;5053983;28;20033;-84
2023/07/27 09:49:18;;;;;;;3.72;1.38;;;19.10;99.90;;;;;;5053238;28;20048;-88
2023/07/27 09:58:32;;;;;;;2.75;1.38;;;19.50;99.90;;;;;;5357435;22;20103;-86
2023/07/27 10:00:58;;;;;;;4.82;1.63;;;19.60;99.90;;;;;;5034347;28;20089;-84
2023/07/27 10:03:24;;;;;;;2.70;1.55;;;19.70;99.90;;;;;;5033634;28;20024;-87
2023/07/27 10:05:50;;;;;;;3.60;1.40;;;19.70;99.90;;;;;;5040246;28;20037;-89
2023/07/27 10:08:16;;;;;;;8.73;1.30;;;19.80;99.90;;;;;;5063531;28;20853;-89
2023/07/27 10:10:42;;;;;;;1.98;1.15;;;19.80;99.90;;;;;;5056552;28;20119;-88
2023/07/27 10:13:22;;;;;;;4.82;1.55;;;19.90;99.90;;;;;;5054575;28;20052;-87
2023/07/27 10:15:50;;;;;;;4.05;1.45;;;20.00;99.90;;;;;;5036702;28;20458;-89
2023/07/27 10:18:20;;;;;;;2.50;1.17;;;20.00;99.90;;;;;;5036130;28;20112;-89
2023/07/27 10:20:45;;;;;;;2.63;1.20;;;20.10;99.90;;;;;;5053954;28;20103;-88
2023/07/27 10:23:20;;;;;;;3.90;1.33;;;20.20;99.90;;;;;;5053343;28;20052;-87
2023/07/27 10:28:38;;;;;;;2.40;1.30;;;20.50;99.90;;;;;;5051467;28;20071;-89
2023/07/27 10:31:23;;;;;;;2.80;1.30;;;20.60;99.90;;;;;;5032962;28;20098;-89
2023/07/27 10:34:16;;;;;;;2.33;1.27;;;20.60;99.90;;;;;;5053712;28;20028;-89
2023/07/27 10:36:56;;;;;;;4.15;1.10;;;20.60;99.90;;;;;;5046121;28;20040;-89
2023/07/27 10:39:35;;;;;;;3.55;1.23;;;20.50;99.90;;;;;;5035808;28;20021;-88
2023/07/27 10:42:10;;;;;;;4.13;1.50;;;20.60;99.90;;;;;;5035819;28;20017;-84
2023/07/27 10:44:55;;;;;;;3.83;1.23;;;20.70;99.90;;;;;;5036304;28;20040;-88
2023/07/27 10:47:32;;;;;;;2.80;1.30;;;20.70;99.90;;;;;;5052779;28;20017;-89
2023/07/27 10:49:59;;;;;;;2.72;1.20;;;20.70;99.90;;;;;;5052938;28;20036;-88
2023/07/27 10:52:30;;;;;;;2.20;1.17;;;20.60;99.90;;;;;;5035495;28;20052;-89
2023/07/27 10:54:59;;;;;;;3.45;1.08;;;20.50;99.90;;;;;;5053387;28;20021;-89
2023/07/27 10:57:26;;;;;;;4.10;1.35;;;20.50;99.90;;;;;;5018848;28;20028;-88
2023/07/27 10:59:52;;;;;;;3.03;1.40;;;20.40;99.90;;;;;;5052848;28;20080;-87
2023/07/27 11:02:30;;;;;;;2.63;1.40;;;20.30;99.90;;;;;;5036152;28;20029;-87
2023/07/27 11:04:57;;;;;;;4.45;1.38;;;20.30;99.90;;;;;;5053592;28;20041;-88
2023/07/27 11:07:38;;;;;;;3.70;0.93;;;20.30;99.90;;;;;;5035116;28;20251;-87
2023/07/27 11:10:12;;;;;;;4.28;1.33;;;20.30;99.90;;;;;;5035340;28;20036;-86
2023/07/27 11:13:04;;;;;;;4.03;1.15;;;20.30;99.90;;;;;;5035960;28;20029;-83
2023/07/27 11:15:30;;;;;;;1.70;1.10;;;20.30;99.90;;;;;;5033023;28;20045;-88
2023/07/27 11:17:57;;;;;;;1.25;1.00;;;20.30;99.90;;;;;;5053560;28;20370;-87
2023/07/27 11:20:24;;;;;;;2.15;1.30;;;20.30;99.90;;;;;;5035071;28;20026;-85
2023/07/27 11:22:51;;;;;;;2.65;1.35;;;20.40;99.90;;;;;;5035622;28;20394;-87
2023/07/27 11:25:17;;;;;;;3.20;1.08;;;20.40;99.90;;;;;;5052666;28;20047;-87
2023/07/27 11:27:47;;;;;;;3.08;1.20;;;20.40;99.90;;;;;;5035747;28;20029;-81
2023/07/27 11:30:17;;;;;;;1.90;1.10;;;20.40;99.90;;;;;;5053071;28;20482;-85
2023/07/27 11:32:53;;;;;;;5.82;1.38;;;20.40;99.90;;;;;;5053261;28;20021;-83
2023/07/27 11:35:19;;;;;;;7.90;1.40;;;20.30;99.90;;;;;;5052422;28;20028;-91
2023/07/27 11:37:45;;;;;;;4.35;1.20;;;20.30;99.90;;;;;;5053452;28;20039;-90
2023/07/27 11:40:18;;;;;;;2.88;1.33;;;20.20;99.90;;;;;;5035591;28;20029;-90
2023/07/27 11:42:44;;;;;;;2.22;1.10;;;20.20;99.90;;;;;;5039032;28;20025;-92
2023/07/27 11:45:10;;;;;;;4.68;1.30;;;20.20;99.90;;;;;;5056553;28;20094;-91
2023/07/27 11:47:40;;;;;;;2.38;1.20;;;20.20;99.90;;;;;;5056886;28;20505;-90
2023/07/27 11:50:08;;;;;;;5.55;1.63;;;20.20;99.90;;;;;;5056211;28;20033;-89
2023/07/27 11:52:37;;;;;;;5.18;1.58;;;20.20;99.90;;;;;;5056250;28;20092;-89
2023/07/27 11:55:03;;;;;;;2.38;1.60;;;20.20;99.90;;;;;;5053250;28;20028;-86
2023/07/27 11:57:30;;;;;;;3.30;1.25;;;20.10;99.90;;;;;;5076348;28;20393;-89
2023/07/27 12:00:12;;;;;;;4.72;1.42;;;20.20;99.90;;;;;;5042175;28;20060;-88
2023/07/27 12:02:38;;;;;;;2.63;1.58;;;20.20;99.90;;;;;;5038974;28;20135;-89
2023/07/27 12:05:04;;;;;;;3.60;1.50;;;20.30;99.90;;;;;;5054915;28;20041;-85
2023/07/27 12:07:33;;;;;;;2.40;1.40;;;20.30;99.90;;;;;;5038429;28;20082;-86
2023/07/27 12:09:59;;;;;;;4.22;1.95;;;20.30;99.90;;;;;;5038403;28;20031;-86
2023/07/27 12:12:25;;;;;;;3.55;1.98;;;20.30;99.90;;;;;;5055159;28;20020;-85
2023/07/27 12:14:54;;;;;;;4.80;1.80;;;20.40;99.90;;;;;;5038268;28;20031;-86
2023/07/27 12:17:23;;;;;;;4.60;1.65;;;20.40;99.90;;;;;;5037368;28;20025;-86
2023/07/27 12:19:48;;;;;;;4.97;2.00;;;20.40;99.90;;;;;;5038538;28;20063;-86
2023/07/27 12:22:14;;;;;;;3.08;1.75;;;20.50;99.90;;;;;;5038175;28;20390;-86
2023/07/27 12:24:44;;;;;;;4.30;1.60;;;20.70;99.90;;;;;;5056063;28;20033;-86
2023/07/27 12:27:09;;;;;;;5.20;1.70;;;20.90;99.90;;;;;;5055558;28;20029;-86
2023/07/27 12:29:35;;;;;;;5.80;1.92;;;20.90;99.90;;;;;;5056306;28;20478;-86
2023/07/27 12:32:00;;;;;;;3.67;1.70;;;21.00;99.90;;;;;;5038465;28;20036;-86
2023/07/27 12:34:26;;;;;;;2.67;1.48;;;21.00;99.90;;;;;;5037535;28;20075;-87
2023/07/27 12:36:52;;;;;;;8.43;2.53;;;21.00;99.90;;;;;;5037751;28;20377;-86
2023/07/27 12:39:18;;;;;;;5.43;2.03;;;21.00;99.90;;;;;;5037776;28;20037;-86
2023/07/27 12:41:44;;;;;;;3.42;1.73;;;21.00;99.90;;;;;;5040701;28;20029;-85
2023/07/27 12:44:09;;;;;;;2.38;1.60;;;20.90;99.90;;;;;;5040738;28;20032;-85
2023/07/27 12:46:35;;;;;;;2.08;1.55;;;21.00;99.90;;;;;;5059415;28;20039;-86
2023/07/27 12:49:00;;;;;;;2.95;1.80;;;21.10;99.90;;;;;;5059176;28;20044;-86
2023/07/27 12:51:26;;;;;;;3.65;1.60;;;21.10;99.90;;;;;;5040663;28;20051;-86
2023/07/27 12:53:52;;;;;;;3.58;1.67;;;21.20;99.90;;;;;;5039672;28;20031;-86
2023/07/27 12:56:18;;;;;;;3.45;1.73;;;21.20;99.90;;;;;;5041763;28;20037;-87
2023/07/27 12:58:44;;;;;;;3.65;1.70;;;21.20;99.90;;;;;;5060192;28;20503;-86